sensor_id;sensor_type;location;lat;lon;timestamp;temperature;humidity
68719;DHT22;55696;52.138;5.444;2023-07-13T00:01:54;21.30;54.70
68719;DHT22;55696;52.138;5.444;2023-07-13T00:04:23;21.20;54.70
68719;DHT22;55696;52.138;5.444;2023-07-13T00:06:52;21.20;54.80
68719;DHT22;55696;52.138;5.444;2023-07-13T00:09:19;21.20;54.90
68719;DHT22;55696;52.138;5.444;2023-07-13T00:11:51;21.10;55.00
68719;DHT22;55696;52.138;5.444;2023-07-13T00:14:18;21.10;55.20
68719;DHT22;55696;52.138;5.444;2023-07-13T00:16:46;21.10;55.20
68719;DHT22;55696;52.138;5.444;2023-07-13T00:19:13;21.00;55.30
68719;DHT22;55696;52.138;5.444;2023-07-13T00:21:40;21.00;55.50
68719;DHT22;55696;52.138;5.444;2023-07-13T00:24:11;21.00;55.60
68719;DHT22;55696;52.138;5.444;2023-07-13T00:26:42;21.00;55.60
68719;DHT22;55696;52.138;5.444;2023-07-13T00:29:13;20.90;55.50
68719;DHT22;55696;52.138;5.444;2023-07-13T00:31:40;20.90;55.80
68719;DHT22;55696;52.138;5.444;2023-07-13T00:34:07;20.80;55.70
68719;DHT22;55696;52.138;5.444;2023-07-13T00:36:34;20.80;55.90
68719;DHT22;55696;52.138;5.444;2023-07-13T00:39:01;20.80;56.00
68719;DHT22;55696;52.138;5.444;2023-07-13T00:41:30;20.80;55.80
68719;DHT22;55696;52.138;5.444;2023-07-13T00:43:57;20.80;55.70
68719;DHT22;55696;52.138;5.444;2023-07-13T00:46:28;19.00;54.70
68719;DHT22;55696;52.138;5.444;2023-07-13T00:48:58;20.70;55.90
68719;DHT22;55696;52.138;5.444;2023-07-13T00:51:46;20.70;55.80
68719;DHT22;55696;52.138;5.444;2023-07-13T00:54:23;20.70;55.90
68719;DHT22;55696;52.138;5.444;2023-07-13T00:56:54;20.60;55.90
68719;DHT22;55696;52.138;5.444;2023-07-13T00:59:22;20.60;56.00
68719;DHT22;55696;52.138;5.444;2023-07-13T01:01:49;20.60;56.00
68719;DHT22;55696;52.138;5.444;2023-07-13T01:04:18;20.60;56.00
68719;DHT22;55696;52.138;5.444;2023-07-13T01:06:45;20.60;56.20
68719;DHT22;55696;52.138;5.444;2023-07-13T01:09:14;20.50;56.20
68719;DHT22;55696;52.138;5.444;2023-07-13T01:11:41;20.50;56.30
68719;DHT22;55696;52.138;5.444;2023-07-13T01:14:08;20.50;56.30
68719;DHT22;55696;52.138;5.444;2023-07-13T01:16:37;20.40;56.50
68719;DHT22;55696;52.138;5.444;2023-07-13T01:19:21;20.40;56.60
68719;DHT22;55696;52.138;5.444;2023-07-13T01:21:52;20.30;56.70
68719;DHT22;55696;52.138;5.444;2023-07-13T01:24:20;20.40;56.80
68719;DHT22;55696;52.138;5.444;2023-07-13T01:26:48;20.30;56.80
68719;DHT22;55696;52.138;5.444;2023-07-13T01:29:15;20.30;56.90
68719;DHT22;55696;52.138;5.444;2023-07-13T01:31:42;20.30;57.00
68719;DHT22;55696;52.138;5.444;2023-07-13T01:34:11;20.30;57.10
68719;DHT22;55696;52.138;5.444;2023-07-13T01:36:38;20.30;57.20
68719;DHT22;55696;52.138;5.444;2023-07-13T01:39:06;20.20;57.30
68719;DHT22;55696;52.138;5.444;2023-07-13T01:41:34;20.10;57.40
68719;DHT22;55696;52.138;5.444;2023-07-13T01:44:01;20.10;57.50
68719;DHT22;55696;52.138;5.444;2023-07-13T01:46:28;20.10;57.60
68719;DHT22;55696;52.138;5.444;2023-07-13T01:48:55;20.00;58.60
68719;DHT22;55696;52.138;5.444;2023-07-13T01:51:22;20.00;57.70
68719;DHT22;55696;52.138;5.444;2023-07-13T01:53:49;19.90;57.70
68719;DHT22;55696;52.138;5.444;2023-07-13T01:56:16;20.00;57.80
68719;DHT22;55696;52.138;5.444;2023-07-13T01:58:45;19.90;57.90
68719;DHT22;55696;52.138;5.444;2023-07-13T02:01:12;19.90;58.20
68719;DHT22;55696;52.138;5.444;2023-07-13T02:03:39;20.00;58.20
68719;DHT22;55696;52.138;5.444;2023-07-13T02:06:06;19.90;58.10
68719;DHT22;55696;52.138;5.444;2023-07-13T02:08:33;19.80;58.20
68719;DHT22;55696;52.138;5.444;2023-07-13T02:11:03;19.80;58.20
68719;DHT22;55696;52.138;5.444;2023-07-13T02:13:30;19.80;58.40
68719;DHT22;55696;52.138;5.444;2023-07-13T02:15:57;19.80;58.40
68719;DHT22;55696;52.138;5.444;2023-07-13T02:18:24;19.80;58.40
68719;DHT22;55696;52.138;5.444;2023-07-13T02:20:51;19.70;58.40
68719;DHT22;55696;52.138;5.444;2023-07-13T02:23:18;19.70;58.40
68719;DHT22;55696;52.138;5.444;2023-07-13T02:25:46;19.80;58.50
68719;DHT22;55696;52.138;5.444;2023-07-13T02:28:15;19.70;58.60
68719;DHT22;55696;52.138;5.444;2023-07-13T02:30:42;19.60;58.80
68719;DHT22;55696;52.138;5.444;2023-07-13T02:33:09;19.60;58.90
68719;DHT22;55696;52.138;5.444;2023-07-13T02:35:36;19.60;59.00
68719;DHT22;55696;52.138;5.444;2023-07-13T02:38:03;19.50;59.10
68719;DHT22;55696;52.138;5.444;2023-07-13T02:40:30;19.50;59.30
68719;DHT22;55696;52.138;5.444;2023-07-13T02:42:59;19.50;59.40
68719;DHT22;55696;52.138;5.444;2023-07-13T02:45:26;19.50;59.40
68719;DHT22;55696;52.138;5.444;2023-07-13T02:47:54;19.40;59.50
68719;DHT22;55696;52.138;5.444;2023-07-13T02:50:21;19.40;59.60
68719;DHT22;55696;52.138;5.444;2023-07-13T02:52:48;19.40;59.70
68719;DHT22;55696;52.138;5.444;2023-07-13T02:55:15;19.40;59.70
68719;DHT22;55696;52.138;5.444;2023-07-13T02:57:43;19.40;59.80
68719;DHT22;55696;52.138;5.444;2023-07-13T03:00:10;19.40;59.90
68719;DHT22;55696;52.138;5.444;2023-07-13T03:02:37;19.40;59.90
68719;DHT22;55696;52.138;5.444;2023-07-13T03:05:05;19.40;59.90
68719;DHT22;55696;52.138;5.444;2023-07-13T03:07:32;19.40;60.00
68719;DHT22;55696;52.138;5.444;2023-07-13T03:09:59;19.40;60.10
68719;DHT22;55696;52.138;5.444;2023-07-13T03:12:36;19.40;60.20
68719;DHT22;55696;52.138;5.444;2023-07-13T03:15:06;19.30;60.20
68719;DHT22;55696;52.138;5.444;2023-07-13T03:17:37;19.30;60.30
68719;DHT22;55696;52.138;5.444;2023-07-13T03:20:05;19.30;60.40
68719;DHT22;55696;52.138;5.444;2023-07-13T03:22:32;19.30;60.40
68719;DHT22;55696;52.138;5.444;2023-07-13T03:25:00;19.30;60.50
68719;DHT22;55696;52.138;5.444;2023-07-13T03:27:27;19.20;60.50
68719;DHT22;55696;52.138;5.444;2023-07-13T03:29:54;19.20;60.70
68719;DHT22;55696;52.138;5.444;2023-07-13T03:32:22;19.20;60.90
68719;DHT22;55696;52.138;5.444;2023-07-13T03:34:49;19.20;61.10
68719;DHT22;55696;52.138;5.444;2023-07-13T03:37:16;19.20;62.10
68719;DHT22;55696;52.138;5.444;2023-07-13T03:39:43;19.20;61.20
68719;DHT22;55696;52.138;5.444;2023-07-13T03:42:11;19.20;61.30
68719;DHT22;55696;52.138;5.444;2023-07-13T03:44:39;19.20;61.40
68719;DHT22;55696;52.138;5.444;2023-07-13T03:47:06;19.20;61.70
68719;DHT22;55696;52.138;5.444;2023-07-13T03:49:35;19.20;61.60
68719;DHT22;55696;52.138;5.444;2023-07-13T03:52:02;19.20;61.60
68719;DHT22;55696;52.138;5.444;2023-07-13T03:54:29;19.20;61.60
68719;DHT22;55696;52.138;5.444;2023-07-13T03:56:56;19.20;61.70
68719;DHT22;55696;52.138;5.444;2023-07-13T03:59:23;19.20;61.70
68719;DHT22;55696;52.138;5.444;2023-07-13T04:01:51;19.30;61.80
68719;DHT22;55696;52.138;5.444;2023-07-13T04:04:18;19.30;61.80
68719;DHT22;55696;52.138;5.444;2023-07-13T04:06:45;19.30;61.80
68719;DHT22;55696;52.138;5.444;2023-07-13T04:09:12;19.40;61.80
68719;DHT22;55696;52.138;5.444;2023-07-13T04:11:39;19.30;61.80
68719;DHT22;55696;52.138;5.444;2023-07-13T04:14:05;19.40;61.80
68719;DHT22;55696;52.138;5.444;2023-07-13T04:16:33;19.30;61.80
68719;DHT22;55696;52.138;5.444;2023-07-13T04:19:00;19.40;61.90
68719;DHT22;55696;52.138;5.444;2023-07-13T04:21:29;19.40;61.90
68719;DHT22;55696;52.138;5.444;2023-07-13T04:23:57;19.40;62.00
68719;DHT22;55696;52.138;5.444;2023-07-13T04:26:24;19.40;62.00
68719;DHT22;55696;52.138;5.444;2023-07-13T04:28:51;19.40;62.00
68719;DHT22;55696;52.138;5.444;2023-07-13T04:31:19;19.40;62.00
68719;DHT22;55696;52.138;5.444;2023-07-13T04:33:46;19.40;62.10
68719;DHT22;55696;52.138;5.444;2023-07-13T04:36:15;19.40;62.30
68719;DHT22;55696;52.138;5.444;2023-07-13T04:38:42;19.30;62.40
68719;DHT22;55696;52.138;5.444;2023-07-13T04:41:09;19.40;62.30
68719;DHT22;55696;52.138;5.444;2023-07-13T04:43:36;19.40;62.50
68719;DHT22;55696;52.138;5.444;2023-07-13T04:46:08;19.40;62.50
68719;DHT22;55696;52.138;5.444;2023-07-13T04:48:37;19.40;62.60
68719;DHT22;55696;52.138;5.444;2023-07-13T04:51:04;19.50;62.50
68719;DHT22;55696;52.138;5.444;2023-07-13T04:53:32;19.60;62.50
68719;DHT22;55696;52.138;5.444;2023-07-13T04:56:02;19.70;62.40
68719;DHT22;55696;52.138;5.444;2023-07-13T04:58:29;19.70;62.20
68719;DHT22;55696;52.138;5.444;2023-07-13T05:01:04;19.70;62.10
68719;DHT22;55696;52.138;5.444;2023-07-13T05:03:31;19.80;62.30
68719;DHT22;55696;52.138;5.444;2023-07-13T05:06:00;19.80;62.20
68719;DHT22;55696;52.138;5.444;2023-07-13T05:08:28;19.90;62.20
68719;DHT22;55696;52.138;5.444;2023-07-13T05:10:55;19.90;62.10
68719;DHT22;55696;52.138;5.444;2023-07-13T05:13:22;19.80;62.10
68719;DHT22;55696;52.138;5.444;2023-07-13T05:16:17;19.90;62.40
68719;DHT22;55696;52.138;5.444;2023-07-13T05:18:44;20.00;62.50
68719;DHT22;55696;52.138;5.444;2023-07-13T05:21:11;20.10;62.10
68719;DHT22;55696;52.138;5.444;2023-07-13T05:23:39;20.10;61.90
68719;DHT22;55696;52.138;5.444;2023-07-13T05:26:08;20.20;62.00
68719;DHT22;55696;52.138;5.444;2023-07-13T05:28:36;20.30;61.90
68719;DHT22;55696;52.138;5.444;2023-07-13T05:31:04;20.30;62.00
68719;DHT22;55696;52.138;5.444;2023-07-13T05:33:31;20.30;62.10
68719;DHT22;55696;52.138;5.444;2023-07-13T05:35:58;20.30;62.00
68719;DHT22;55696;52.138;5.444;2023-07-13T05:38:27;20.40;61.90
68719;DHT22;55696;52.138;5.444;2023-07-13T05:40:55;20.50;61.90
68719;DHT22;55696;52.138;5.444;2023-07-13T05:43:23;20.60;61.90
68719;DHT22;55696;52.138;5.444;2023-07-13T05:45:55;20.70;61.70
68719;DHT22;55696;52.138;5.444;2023-07-13T05:48:22;20.70;61.70
68719;DHT22;55696;52.138;5.444;2023-07-13T05:50:49;20.70;61.50
68719;DHT22;55696;52.138;5.444;2023-07-13T05:53:16;20.70;61.70
68719;DHT22;55696;52.138;5.444;2023-07-13T05:55:44;20.80;61.70
68719;DHT22;55696;52.138;5.444;2023-07-13T05:58:14;20.80;61.70
68719;DHT22;55696;52.138;5.444;2023-07-13T06:00:41;20.80;61.60
68719;DHT22;55696;52.138;5.444;2023-07-13T06:03:08;20.90;61.60
68719;DHT22;55696;52.138;5.444;2023-07-13T06:05:36;20.90;61.60
68719;DHT22;55696;52.138;5.444;2023-07-13T06:08:05;21.00;61.60
68719;DHT22;55696;52.138;5.444;2023-07-13T06:10:33;21.00;61.50
68719;DHT22;55696;52.138;5.444;2023-07-13T06:13:00;21.00;61.50
68719;DHT22;55696;52.138;5.444;2023-07-13T06:15:27;21.20;61.40
68719;DHT22;55696;52.138;5.444;2023-07-13T06:17:54;21.30;61.40
68719;DHT22;55696;52.138;5.444;2023-07-13T06:20:21;21.40;61.10
68719;DHT22;55696;52.138;5.444;2023-07-13T06:22:48;21.40;60.90
68719;DHT22;55696;52.138;5.444;2023-07-13T06:25:15;21.40;60.90
68719;DHT22;55696;52.138;5.444;2023-07-13T06:27:42;21.40;60.90
68719;DHT22;55696;52.138;5.444;2023-07-13T06:30:09;21.40;60.90
68719;DHT22;55696;52.138;5.444;2023-07-13T06:32:37;21.30;60.90
68719;DHT22;55696;52.138;5.444;2023-07-13T06:35:07;21.30;61.10
68719;DHT22;55696;52.138;5.444;2023-07-13T06:37:34;21.30;61.30
68719;DHT22;55696;52.138;5.444;2023-07-13T06:40:01;21.40;61.10
68719;DHT22;55696;52.138;5.444;2023-07-13T06:42:28;21.40;61.10
68719;DHT22;55696;52.138;5.444;2023-07-13T06:44:55;21.40;61.00
68719;DHT22;55696;52.138;5.444;2023-07-13T06:47:22;21.40;61.10
68719;DHT22;55696;52.138;5.444;2023-07-13T06:49:49;21.40;61.20
68719;DHT22;55696;52.138;5.444;2023-07-13T06:52:16;21.50;61.20
68719;DHT22;55696;52.138;5.444;2023-07-13T06:54:42;21.60;61.10
68719;DHT22;55696;52.138;5.444;2023-07-13T06:57:10;21.60;60.90
68719;DHT22;55696;52.138;5.444;2023-07-13T06:59:37;21.70;60.70
68719;DHT22;55696;52.138;5.444;2023-07-13T07:02:04;21.80;60.80
68719;DHT22;55696;52.138;5.444;2023-07-13T07:04:31;21.90;60.60
68719;DHT22;55696;52.138;5.444;2023-07-13T07:06:58;22.10;60.30
68719;DHT22;55696;52.138;5.444;2023-07-13T07:09:25;22.30;59.80
68719;DHT22;55696;52.138;5.444;2023-07-13T07:11:52;22.60;59.10
68719;DHT22;55696;52.138;5.444;2023-07-13T07:14:29;22.50;58.50
68719;DHT22;55696;52.138;5.444;2023-07-13T07:16:56;22.60;58.70
68719;DHT22;55696;52.138;5.444;2023-07-13T07:19:25;22.60;58.60
68719;DHT22;55696;52.138;5.444;2023-07-13T07:21:52;22.70;58.40
68719;DHT22;55696;52.138;5.444;2023-07-13T07:24:19;22.80;58.40
68719;DHT22;55696;52.138;5.444;2023-07-13T07:26:46;22.80;58.00
68719;DHT22;55696;52.138;5.444;2023-07-13T07:29:16;22.90;57.90
68719;DHT22;55696;52.138;5.444;2023-07-13T07:31:45;22.90;57.80
68719;DHT22;55696;52.138;5.444;2023-07-13T07:34:15;22.80;57.90
68719;DHT22;55696;52.138;5.444;2023-07-13T07:36:42;22.60;59.20
68719;DHT22;55696;52.138;5.444;2023-07-13T07:39:12;22.60;58.80
68719;DHT22;55696;52.138;5.444;2023-07-13T07:41:39;22.50;60.00
68719;DHT22;55696;52.138;5.444;2023-07-13T07:44:08;22.50;59.60
68719;DHT22;55696;52.138;5.444;2023-07-13T07:46:37;22.50;59.70
68719;DHT22;55696;52.138;5.444;2023-07-13T07:49:04;22.40;59.70
68719;DHT22;55696;52.138;5.444;2023-07-13T07:51:31;22.50;60.10
68719;DHT22;55696;52.138;5.444;2023-07-13T07:53:57;22.50;60.30
68719;DHT22;55696;52.138;5.444;2023-07-13T07:56:25;22.60;60.00
68719;DHT22;55696;52.138;5.444;2023-07-13T07:58:54;22.60;60.30
68719;DHT22;55696;52.138;5.444;2023-07-13T08:01:24;22.50;60.10
68719;DHT22;55696;52.138;5.444;2023-07-13T08:03:54;22.40;60.20
68719;DHT22;55696;52.138;5.444;2023-07-13T08:06:24;22.30;60.60
68719;DHT22;55696;52.138;5.444;2023-07-13T08:09:11;22.30;60.90
68719;DHT22;55696;52.138;5.444;2023-07-13T08:11:38;22.40;60.80
68719;DHT22;55696;52.138;5.444;2023-07-13T08:14:08;22.50;60.30
68719;DHT22;55696;52.138;5.444;2023-07-13T08:16:36;22.60;60.00
68719;DHT22;55696;52.138;5.444;2023-07-13T08:19:03;22.80;60.80
68719;DHT22;55696;52.138;5.444;2023-07-13T08:21:31;22.90;59.60
68719;DHT22;55696;52.138;5.444;2023-07-13T08:23:57;22.90;58.70
68719;DHT22;55696;52.138;5.444;2023-07-13T08:26:24;22.90;58.70
68719;DHT22;55696;52.138;5.444;2023-07-13T08:28:51;23.00;58.50
68719;DHT22;55696;52.138;5.444;2023-07-13T08:31:18;22.90;58.30
68719;DHT22;55696;52.138;5.444;2023-07-13T08:33:45;22.80;58.20
68719;DHT22;55696;52.138;5.444;2023-07-13T08:36:12;22.80;58.00
68719;DHT22;55696;52.138;5.444;2023-07-13T08:38:39;22.80;58.00
68719;DHT22;55696;52.138;5.444;2023-07-13T08:41:21;22.90;57.80
68719;DHT22;55696;52.138;5.444;2023-07-13T08:43:51;23.10;57.30
68719;DHT22;55696;52.138;5.444;2023-07-13T08:46:35;23.30;56.30
68719;DHT22;55696;52.138;5.444;2023-07-13T08:49:18;23.50;55.50
68719;DHT22;55696;52.138;5.444;2023-07-13T08:52:04;23.60;54.70
68719;DHT22;55696;52.138;5.444;2023-07-13T08:54:41;23.70;54.10
68719;DHT22;55696;52.138;5.444;2023-07-13T08:57:15;23.70;53.40
68719;DHT22;55696;52.138;5.444;2023-07-13T08:59:43;23.70;52.80
68719;DHT22;55696;52.138;5.444;2023-07-13T09:02:26;23.60;52.50
68719;DHT22;55696;52.138;5.444;2023-07-13T09:05:00;23.40;52.00
68719;DHT22;55696;52.138;5.444;2023-07-13T09:10:31;23.00;52.40
68719;DHT22;55696;52.138;5.444;2023-07-13T09:15:45;22.70;53.60
68719;DHT22;55696;52.138;5.444;2023-07-13T09:18:24;22.60;54.00
68719;DHT22;55696;52.138;5.444;2023-07-13T09:21:08;22.60;54.80
68719;DHT22;55696;52.138;5.444;2023-07-13T09:23:37;22.70;56.10
68719;DHT22;55696;52.138;5.444;2023-07-13T09:26:06;22.80;55.50
68719;DHT22;55696;52.138;5.444;2023-07-13T09:28:43;22.80;56.10
68719;DHT22;55696;52.138;5.444;2023-07-13T09:31:24;22.90;56.60
68719;DHT22;55696;52.138;5.444;2023-07-13T09:33:53;23.00;56.70
68719;DHT22;55696;52.138;5.444;2023-07-13T09:36:27;23.10;56.70
68719;DHT22;55696;52.138;5.444;2023-07-13T09:42:16;23.70;56.40
68719;DHT22;55696;52.138;5.444;2023-07-13T09:44:50;23.90;55.50
68719;DHT22;55696;52.138;5.444;2023-07-13T09:47:20;24.10;54.10
68719;DHT22;55696;52.138;5.444;2023-07-13T09:52:44;24.00;53.00
68719;DHT22;55696;52.138;5.444;2023-07-13T09:55:34;23.80;53.30
68719;DHT22;55696;52.138;5.444;2023-07-13T09:58:14;23.40;54.00
68719;DHT22;55696;52.138;5.444;2023-07-13T10:00:44;23.00;55.90
68719;DHT22;55696;52.138;5.444;2023-07-13T10:03:28;22.50;58.10
68719;DHT22;55696;52.138;5.444;2023-07-13T10:06:10;22.10;59.70
68719;DHT22;55696;52.138;5.444;2023-07-13T10:08:38;21.70;59.50
68719;DHT22;55696;52.138;5.444;2023-07-13T10:11:17;21.40;60.40
68719;DHT22;55696;52.138;5.444;2023-07-13T10:14:01;21.20;61.10
68719;DHT22;55696;52.138;5.444;2023-07-13T10:16:32;21.50;61.80
68719;DHT22;55696;52.138;5.444;2023-07-13T10:21:53;21.90;61.20
68719;DHT22;55696;52.138;5.444;2023-07-13T10:24:32;22.20;61.20
68719;DHT22;55696;52.138;5.444;2023-07-13T10:27:18;22.50;61.20
68719;DHT22;55696;52.138;5.444;2023-07-13T10:30:17;22.70;60.20
68719;DHT22;55696;52.138;5.444;2023-07-13T10:32:47;22.70;60.20
68719;DHT22;55696;52.138;5.444;2023-07-13T10:35:17;22.70;59.90
68719;DHT22;55696;52.138;5.444;2023-07-13T10:37:55;22.90;60.00
68719;DHT22;55696;52.138;5.444;2023-07-13T10:40:30;23.10;59.70
68719;DHT22;55696;52.138;5.444;2023-07-13T10:43:01;23.30;58.90
68719;DHT22;55696;52.138;5.444;2023-07-13T10:45:34;24.40;58.60
68719;DHT22;55696;52.138;5.444;2023-07-13T10:48:03;23.50;57.80
68719;DHT22;55696;52.138;5.444;2023-07-13T10:50:32;23.50;57.50
68719;DHT22;55696;52.138;5.444;2023-07-13T10:53:21;23.30;57.50
68719;DHT22;55696;52.138;5.444;2023-07-13T10:58:21;23.20;58.60
68719;DHT22;55696;52.138;5.444;2023-07-13T11:03:22;23.70;58.20
68719;DHT22;55696;52.138;5.444;2023-07-13T11:05:51;23.90;56.70
68719;DHT22;55696;52.138;5.444;2023-07-13T11:08:36;24.00;55.40
68719;DHT22;55696;52.138;5.444;2023-07-13T11:18:46;24.70;50.70
68719;DHT22;55696;52.138;5.444;2023-07-13T11:21:20;24.70;49.90
68719;DHT22;55696;52.138;5.444;2023-07-13T11:24:28;25.00;50.00
68719;DHT22;55696;52.138;5.444;2023-07-13T11:26:56;25.30;49.90
68719;DHT22;55696;52.138;5.444;2023-07-13T11:29:33;25.20;49.30
68719;DHT22;55696;52.138;5.444;2023-07-13T11:32:25;25.30;49.20
68719;DHT22;55696;52.138;5.444;2023-07-13T11:34:54;25.20;49.10
68719;DHT22;55696;52.138;5.444;2023-07-13T11:37:22;25.00;48.90
68719;DHT22;55696;52.138;5.444;2023-07-13T11:39:51;24.90;48.90
68719;DHT22;55696;52.138;5.444;2023-07-13T11:42:21;24.60;49.00
68719;DHT22;55696;52.138;5.444;2023-07-13T11:44:50;24.40;50.40
68719;DHT22;55696;52.138;5.444;2023-07-13T11:47:40;23.90;52.30
68719;DHT22;55696;52.138;5.444;2023-07-13T11:50:21;23.80;55.20
68719;DHT22;55696;52.138;5.444;2023-07-13T11:52:49;23.60;54.90
68719;DHT22;55696;52.138;5.444;2023-07-13T11:55:18;23.40;55.50
68719;DHT22;55696;52.138;5.444;2023-07-13T11:57:50;23.30;55.80
68719;DHT22;55696;52.138;5.444;2023-07-13T12:00:22;23.20;56.40
68719;DHT22;55696;52.138;5.444;2023-07-13T12:02:54;23.20;56.80
68719;DHT22;55696;52.138;5.444;2023-07-13T12:05:22;23.20;57.60
68719;DHT22;55696;52.138;5.444;2023-07-13T12:07:50;23.00;56.70
68719;DHT22;55696;52.138;5.444;2023-07-13T12:10:21;23.00;57.20
68719;DHT22;55696;52.138;5.444;2023-07-13T12:15:22;23.00;57.90
68719;DHT22;55696;52.138;5.444;2023-07-13T12:17:50;23.00;58.20
68719;DHT22;55696;52.138;5.444;2023-07-13T12:20:24;23.00;58.40
68719;DHT22;55696;52.138;5.444;2023-07-13T12:22:51;23.00;58.80
68719;DHT22;55696;52.138;5.444;2023-07-13T12:25:20;23.20;58.70
68719;DHT22;55696;52.138;5.444;2023-07-13T12:27:49;23.20;58.40
68719;DHT22;55696;52.138;5.444;2023-07-13T12:30:31;23.20;58.40
68719;DHT22;55696;52.138;5.444;2023-07-13T12:33:07;23.30;59.00
68719;DHT22;55696;52.138;5.444;2023-07-13T12:35:42;23.40;58.40
68719;DHT22;55696;52.138;5.444;2023-07-13T12:38:11;23.60;58.10
68719;DHT22;55696;52.138;5.444;2023-07-13T12:40:39;23.90;57.50
68719;DHT22;55696;52.138;5.444;2023-07-13T12:43:14;24.20;56.80
68719;DHT22;55696;52.138;5.444;2023-07-13T12:46:03;24.70;56.10
68719;DHT22;55696;52.138;5.444;2023-07-13T12:48:37;25.20;55.00
68719;DHT22;55696;52.138;5.444;2023-07-13T12:51:14;25.70;54.90
68719;DHT22;55696;52.138;5.444;2023-07-13T12:53:48;25.90;53.50
68719;DHT22;55696;52.138;5.444;2023-07-13T12:56:23;25.50;50.50
68719;DHT22;55696;52.138;5.444;2023-07-13T12:58:58;25.10;49.90
68719;DHT22;55696;52.138;5.444;2023-07-13T13:01:29;24.70;50.60
68719;DHT22;55696;52.138;5.444;2023-07-13T13:03:56;24.80;50.70
68719;DHT22;55696;52.138;5.444;2023-07-13T13:06:26;25.00;50.00
68719;DHT22;55696;52.138;5.444;2023-07-13T13:08:59;25.40;49.60
68719;DHT22;55696;52.138;5.444;2023-07-13T13:11:28;25.60;49.20
68719;DHT22;55696;52.138;5.444;2023-07-13T13:13:55;25.50;48.60
68719;DHT22;55696;52.138;5.444;2023-07-13T13:18:50;25.30;49.10
68719;DHT22;55696;52.138;5.444;2023-07-13T13:21:18;25.30;48.60
68719;DHT22;55696;52.138;5.444;2023-07-13T13:23:45;25.30;48.50
68719;DHT22;55696;52.138;5.444;2023-07-13T13:26:15;25.20;49.10
68719;DHT22;55696;52.138;5.444;2023-07-13T13:28:43;25.60;49.70
68719;DHT22;55696;52.138;5.444;2023-07-13T13:31:11;25.20;49.50
68719;DHT22;55696;52.138;5.444;2023-07-13T13:33:40;25.20;49.00
68719;DHT22;55696;52.138;5.444;2023-07-13T13:36:17;25.10;47.60
68719;DHT22;55696;52.138;5.444;2023-07-13T13:38:46;25.40;47.30
68719;DHT22;55696;52.138;5.444;2023-07-13T13:41:14;25.60;45.90
68719;DHT22;55696;52.138;5.444;2023-07-13T13:43:42;25.40;45.60
68719;DHT22;55696;52.138;5.444;2023-07-13T13:46:15;25.00;45.80
68719;DHT22;55696;52.138;5.444;2023-07-13T13:48:43;24.90;46.50
68719;DHT22;55696;52.138;5.444;2023-07-13T13:51:19;24.90;46.80
68719;DHT22;55696;52.138;5.444;2023-07-13T13:53:47;25.10;46.30
68719;DHT22;55696;52.138;5.444;2023-07-13T13:56:15;25.30;46.00
68719;DHT22;55696;52.138;5.444;2023-07-13T13:58:42;25.30;45.80
68719;DHT22;55696;52.138;5.444;2023-07-13T14:01:22;25.30;45.10
68719;DHT22;55696;52.138;5.444;2023-07-13T14:03:51;25.20;44.60
68719;DHT22;55696;52.138;5.444;2023-07-13T14:06:18;25.20;44.90
68719;DHT22;55696;52.138;5.444;2023-07-13T14:08:46;25.50;45.30
68719;DHT22;55696;52.138;5.444;2023-07-13T14:11:16;26.10;44.20
68719;DHT22;55696;52.138;5.444;2023-07-13T14:14:04;26.10;43.30
68719;DHT22;55696;52.138;5.444;2023-07-13T14:16:32;26.10;43.80
68719;DHT22;55696;52.138;5.444;2023-07-13T14:19:00;26.30;44.00
68719;DHT22;55696;52.138;5.444;2023-07-13T14:21:29;26.20;43.40
68719;DHT22;55696;52.138;5.444;2023-07-13T14:23:56;26.00;43.30
68719;DHT22;55696;52.138;5.444;2023-07-13T14:26:24;25.70;43.60
68719;DHT22;55696;52.138;5.444;2023-07-13T14:28:55;25.60;44.10
68719;DHT22;55696;52.138;5.444;2023-07-13T14:31:24;25.50;44.00
68719;DHT22;55696;52.138;5.444;2023-07-13T14:33:56;25.40;44.30
68719;DHT22;55696;52.138;5.444;2023-07-13T14:36:32;25.50;44.50
68719;DHT22;55696;52.138;5.444;2023-07-13T14:39:08;26.00;44.40
68719;DHT22;55696;52.138;5.444;2023-07-13T14:41:38;26.10;43.40
68719;DHT22;55696;52.138;5.444;2023-07-13T14:44:14;26.00;43.30
68719;DHT22;55696;52.138;5.444;2023-07-13T14:46:41;25.80;43.30
68719;DHT22;55696;52.138;5.444;2023-07-13T14:52:00;25.90;43.70
68719;DHT22;55696;52.138;5.444;2023-07-13T14:54:27;25.90;43.50
68719;DHT22;55696;52.138;5.444;2023-07-13T14:56:57;25.80;43.20
68719;DHT22;55696;52.138;5.444;2023-07-13T14:59:24;25.70;43.40
68719;DHT22;55696;52.138;5.444;2023-07-13T15:01:51;25.80;43.50
68719;DHT22;55696;52.138;5.444;2023-07-13T15:04:18;25.80;43.50
68719;DHT22;55696;52.138;5.444;2023-07-13T15:07:00;25.60;43.70
68719;DHT22;55696;52.138;5.444;2023-07-13T15:09:28;25.80;43.90
68719;DHT22;55696;52.138;5.444;2023-07-13T15:11:59;26.40;43.40
68719;DHT22;55696;52.138;5.444;2023-07-13T15:14:26;27.20;42.60
68719;DHT22;55696;52.138;5.444;2023-07-13T15:16:56;27.30;41.30
68719;DHT22;55696;52.138;5.444;2023-07-13T15:19:24;27.50;41.30
68719;DHT22;55696;52.138;5.444;2023-07-13T15:21:52;27.20;41.00
68719;DHT22;55696;52.138;5.444;2023-07-13T15:24:21;27.10;41.20
68719;DHT22;55696;52.138;5.444;2023-07-13T15:26:48;27.30;41.50
68719;DHT22;55696;52.138;5.444;2023-07-13T15:29:16;27.70;41.00
68719;DHT22;55696;52.138;5.444;2023-07-13T15:31:44;28.20;41.00
68719;DHT22;55696;52.138;5.444;2023-07-13T15:34:13;27.70;40.50
68719;DHT22;55696;52.138;5.444;2023-07-13T15:36:40;27.70;40.50
68719;DHT22;55696;52.138;5.444;2023-07-13T15:39:14;27.80;40.40
68719;DHT22;55696;52.138;5.444;2023-07-13T15:41:42;27.40;40.40
68719;DHT22;55696;52.138;5.444;2023-07-13T15:44:33;27.00;41.00
68719;DHT22;55696;52.138;5.444;2023-07-13T15:47:00;26.60;41.70
68719;DHT22;55696;52.138;5.444;2023-07-13T15:49:27;26.40;42.00
68719;DHT22;55696;52.138;5.444;2023-07-13T15:51:55;26.40;42.30
68719;DHT22;55696;52.138;5.444;2023-07-13T15:54:22;26.80;42.40
68719;DHT22;55696;52.138;5.444;2023-07-13T15:56:55;27.30;41.50
68719;DHT22;55696;52.138;5.444;2023-07-13T15:59:23;27.90;40.30
68719;DHT22;55696;52.138;5.444;2023-07-13T16:01:50;28.40;39.60
68719;DHT22;55696;52.138;5.444;2023-07-13T16:04:17;28.60;38.60
68719;DHT22;55696;52.138;5.444;2023-07-13T16:06:46;28.60;38.40
68719;DHT22;55696;52.138;5.444;2023-07-13T16:09:22;28.70;37.80
68719;DHT22;55696;52.138;5.444;2023-07-13T16:11:50;28.80;38.90
68719;DHT22;55696;52.138;5.444;2023-07-13T16:14:18;28.90;38.00
68719;DHT22;55696;52.138;5.444;2023-07-13T16:16:47;29.00;37.40
68719;DHT22;55696;52.138;5.444;2023-07-13T16:19:15;29.10;37.90
68719;DHT22;55696;52.138;5.444;2023-07-13T16:21:46;29.30;37.20
68719;DHT22;55696;52.138;5.444;2023-07-13T16:24:17;29.30;36.50